Smith Valley, Nevada Weather observations

Data are for 10 minute period ending at time listed.
 Day   Time   Solar   Ave.   Ave.  Ave.  Vector  Max.   Baro.   Total    
  of    of     Rad.   Air    Rel.  Wind   Wind   Wind  Press.  Precip.   
Year   Day            Temp.  Hum.  Speed  Dir.   Gust                    
2014   (PST)  Kw/m2    F      %     mph   deg.    mph    mb.     in.     
-------------------------------------------------------------------------
 243    3:50   0.00   50.3    39    5.5   151     6.9   850.3    0.00 
 243    4:00   0.00   50.5    37    5.2   152     6.9   850.3    0.00 
 243    4:10   0.00   50.2    39    5.5   156     6.8   850.4    0.00 
 243    4:20   0.00   49.5    41    4.7   165     6.5   850.4    0.00 
 243    4:30   0.00   48.7    42    5.5   160     6.5   850.5    0.00 
 243    4:40   0.00   50.3    37    6.3   151     7.8   850.5    0.00 
 243    4:50   0.00   50.7    35    5.5   152     6.8   850.6    0.00 
 243    5:00   0.00   51.3    34    5.9   150     7.5   850.7    0.00 
 243    5:10   0.00   50.8    35    5.9   151     7.7   850.7    0.00 
 243    5:20   0.00   50.8    35    6.3   149     8.3   850.8    0.00 
 243    5:30   0.01   50.2    37    5.8   161     7.0   851.0    0.00 
 243    5:40   0.02   49.0    41    5.2   171     6.0   851.1    0.00 
 243    5:50   0.04   48.2    42    5.9   162     7.2   851.1    0.00 
 243    6:00   0.06   51.4    36    5.3   166     6.9   851.3    0.00 
 243    6:10   0.08   52.7    35    4.8   186     7.4   851.3    0.00 
 243    6:20   0.10   53.4    35    5.4   176     7.5   851.3    0.00 
 243    6:30   0.13   55.2    34    3.2   124     5.6   851.3    0.00 
 243    6:40   0.16   57.5    31    4.0   166     5.6   851.3    0.00 
 243    6:50   0.19   59.3    30    3.4   184     5.3   851.3    0.00 
 243    7:00   0.23   61.0    30    1.5   218     3.0   851.3    0.00 
 243    7:10   0.26   63.3    28    0.7   265     1.6   851.3    0.00 
 243    7:20   0.30   65.1    26    1.0   195     2.9   851.3    0.00 
 243    7:30   0.33   66.1    25    1.3   190     2.6   851.4    0.00 
 243    7:40   0.36   67.1    23    1.3   206     3.4   851.5    0.00 
 243    7:50   0.40   68.4    22    1.0   228     2.8   851.5    0.00 
 243    8:00   0.43   68.5    23    2.9    20     4.5   851.5    0.00 
 243    8:10   0.47   67.7    25    3.2    13     5.0   851.7    0.00 
 243    8:20   0.50   67.9    26    3.0     7     5.0   851.8    0.00 
 243    8:30   0.53   68.7    26    2.7    30     5.2   852.0    0.00 
 243    8:40   0.57   69.2    26    3.1    11     5.8   852.0    0.00 
 243    8:50   0.60   69.8    25    3.3    23     5.3   852.0    0.00 
 243    9:00   0.63   69.9    25    3.7     7     6.4   852.0    0.00 
 243    9:10   0.66   70.5    24    3.6    17     7.4   852.0    0.00 
 243    9:20   0.69   71.2    24    3.7    36     7.7   851.9    0.00 
 243    9:30   0.71   71.7    23    3.4    29     8.3   851.9    0.00 
 243    9:40   0.69   73.4    22    2.7    28     5.3   851.9    0.00 
 243    9:50   0.76   73.5    22    3.8    18     8.7   851.8    0.00 
 243   10:00   0.58   73.1    21    4.6    48     8.8   851.7    0.00 
 243   10:10   0.79   74.1    20    2.2    50     4.6   851.6    0.00 
 243   10:20   0.81   75.1    19    3.1    50     7.8   851.5    0.00 
 243   10:30   0.79   75.2    18    3.3    31     6.9   851.4    0.00 
 243   10:40   0.75   75.1    18    4.3    60     7.8   851.3    0.00 
 243   10:50   0.58   75.7    18    3.6    70     7.5   851.2    0.00 
 243   11:00   0.89   76.9    17    3.6    22     8.8   851.1    0.00 
 243   11:10   0.90   76.8    16    5.0    20     8.7   851.0    0.00 
 243   11:20   0.89   77.7    16    4.9     1     8.4   850.9    0.00 
 243   11:30   0.91   78.0    15    4.0    18     7.9   850.8    0.00 
 243   11:40   0.92   78.4    15    4.3    27     9.6   850.7    0.00 
 243   11:50   0.93   79.3    15    3.3   106     9.0   850.6    0.00 
 243   12:00   0.93   79.9    15    4.5    41    10.0   850.4    0.00 
 243   12:10   0.93   80.1    15    5.8     8    10.7   850.3    0.00 
 243   12:20   0.93   80.5    15    6.1    48    11.8   850.2    0.00 
 243   12:30   0.92   80.5    15    6.1    32    10.4   850.2    0.00 
 243   12:40   0.91   80.9    15    6.5    45    10.9   850.1    0.00 
 243   12:50   0.91   81.4    14    4.5    19     9.2   850.0    0.00 
 243   13:00   0.90   82.3    14    6.0    31    11.1   849.9    0.00 
 243   13:10   0.89   82.2    14    5.3    40    10.2   849.7    0.00 
 243   13:20   0.88   83.2    14    5.9    64    10.1   849.6    0.00 
 243   13:30   0.87   83.6    14    5.9    32    10.7   849.5    0.00 
 243   13:40   0.84   84.2    14    5.0    42    11.0   849.3    0.00 
 243   13:50   0.84   84.6    14    6.6    22    12.3   849.2    0.00 
 243   14:00   0.82   84.8    14    5.4    42     9.7   849.0    0.00 
 243   14:10   0.80   84.9    14    6.6    10    12.5   848.9    0.00 
 243   14:20   0.78   85.3    14    6.0     8    10.5   848.8    0.00 
 243   14:30   0.76   85.6    13    6.7    36    12.3   848.7    0.00 
 243   14:40   100.00  99999.0   99999  99999.0   99999   99999.0   99999.0   99999.00 
 243   14:50   0.71   85.6    13    6.4    51    10.2   848.5    0.00 
 243   15:00   0.68   85.8    13    7.4    66    15.2   848.4    0.00 
 243   15:10   0.66   86.3    13    8.1    58    13.5   848.4    0.00 
 243   15:20   0.63   86.5    13    6.9    48    10.7   848.3    0.00 
 243   15:30   0.57   86.3    13    6.5    15    11.0   848.3    0.00 
 243   15:40   0.57   86.4    14    5.9    12     8.2   848.3    0.00 
 243   15:50   0.54   86.5    13    4.9    35     7.5   848.3    0.00 
 243   16:00   0.51   86.5    14    5.6    33     9.2   848.2    0.00 
 243   16:10   0.47   86.2    13    5.8    28     9.4   848.1    0.00 
 243   16:20   0.44   86.3    14    6.3    49     9.0   848.0    0.00 
 243   16:30   0.40   86.2    15    5.1    26     7.3   848.1    0.00 
 243   16:40   0.37   86.1    14    5.0    38     7.9   848.1    0.00 
 243   16:50   0.34   86.1    14    6.6    49    10.2   848.1    0.00 
 243   17:00   0.30   85.3    16    7.7    46    11.0   848.1    0.00 
 243   17:10   0.27   83.4    19    8.7    37    12.6   848.1    0.00 
 243   17:20   0.23   83.4    17    7.8    52    11.6   848.2    0.00 
 243   17:30   0.20   83.0    18    6.7    51    10.2   848.2    0.00 
 243   17:40   0.17   81.8    20    2.6    16     7.7   848.3    0.00 
 243   17:50   0.13   82.4    19    2.0    32     4.9   848.4    0.00 
 243   18:00   0.10   82.0    15    3.4   282     8.8   848.5    0.00 
 243   18:10   0.06   81.2    16    2.7     0     4.6   848.6    0.00 
 243   18:20   0.01   77.7    21    3.7   343     6.7   848.6    0.00 
 243   18:30   0.01   77.3    19    4.8   311     7.8   848.7    0.00 
 243   18:40   0.00   76.8    19    4.3   329     6.5   848.8    0.00 
 243   18:50   0.00   75.2    20    3.2   301     6.1   848.9    0.00 
 243   19:00   0.00   76.8    19    3.6   322     4.9   849.0    0.00 
 243   19:10   0.00   75.2    21    3.7   319     6.7   849.0    0.00 
 243   19:20   0.00   75.3    20    1.0   286     2.8   849.0    0.00 
 243   19:30   0.00   74.1    22    1.6    30     4.6   849.1    0.00 
 243   19:40   0.00   73.3    23    1.4   309     3.7   849.2    0.00 
 243   19:50   0.00   74.5    21    4.0   315     8.6   849.3    0.00 
 243   20:00   0.00   75.0    21    2.1    37     3.6   849.5    0.00 
 243   20:10   0.00   72.7    22    1.2   220     4.3   849.5    0.00 
 243   20:20   0.00   75.0    20    1.7   213     3.4   849.6    0.00 
 243   20:30   0.00   71.6    23    3.2    86     4.8   849.7    0.00 
 243   20:40   0.00   71.0    25    2.5   168     3.7   849.7    0.00 
 243   20:50   0.00   73.8    22    1.3   202     2.8   849.7    0.00 
 243   21:00   0.00   73.5    22    1.6   191     2.4   849.7    0.00 
 243   21:10   0.00   73.1    23    2.4   204     4.2   849.7    0.00 
 243   21:20   0.00   65.2    34    2.8   170     4.3   849.8    0.00 
 243   21:30   0.00   63.2    36    3.7   143     6.9   849.8    0.00 
 243   21:40   0.00   62.0    34    4.0   159     6.6   849.8    0.00 
 243   21:50   0.00   60.0    39    3.1   190     5.3   849.8    0.00 
 243   22:00   0.00   58.5    38    4.9   168     6.1   849.9    0.00 
 243   22:10   0.00   58.3    39    5.1   154     6.7   849.9    0.00 
 243   22:20   0.00   56.8    43    4.0   157     5.2   850.0    0.00 
 243   22:30   0.00   55.7    46    4.7   150     5.6   850.0    0.00 
 243   22:40   0.00   53.8    52    5.2   160     6.1   850.0    0.00 
 243   22:50   0.00   53.0    54    5.1   160     6.3   850.0    0.00 
 243   23:00   0.00   53.2    51    5.2   150     6.1   850.0    0.00 
 243   23:10   0.00   54.9    45    5.9   148     7.1   850.1    0.00 
 243   23:20   0.00   56.1    42    5.4   152     6.6   850.2    0.00 
 243   23:30   0.00   55.5    44    4.6   164     6.0   850.2    0.00 
 243   23:40   0.00   54.2    46    5.3   164     6.9   850.3    0.00 
 243   23:50   0.00   54.7    46    4.5   157     6.4   850.4    0.00 
 244    0:00   0.00   56.8    41    4.8   159     6.4   850.4    0.00 
 244    0:10   0.00   55.1    44    4.8   161     5.8   850.4    0.00 
 244    0:20   0.00   54.3    46    5.2   153     8.8   850.5    0.00 
 244    0:30   0.00   56.2    41    3.8   168     5.4   850.4    0.00 
 244    0:40   0.00   53.8    46    3.1   162     6.5   850.5    0.00 
 244    0:50   0.00   54.6    44    4.2   150     6.6   850.5    0.00 
 244    1:00   0.00   55.4    43    4.4   170     6.7   850.5    0.00 
 244    1:10   0.00   54.4    43    5.0   176     7.2   850.4    0.00 
 244    1:20   0.00   54.2    44    5.3   159     6.8   850.4    0.00 
 244    1:30   0.00   53.9    46    4.8   166     6.4   850.5    0.00 
 244    1:40   0.00   53.3    46    4.7   178     5.8   850.6    0.00 
 244    1:50   0.00   52.4    48    5.0   164     6.6   850.6    0.00 
 244    2:00   0.00   52.5    48    5.5   156     7.3   850.6    0.00 
 244    2:10   0.00   53.9    45    4.2   153     5.7   850.7    0.00 
 244    2:20   0.00   54.2    44    5.2   170     8.0   850.7    0.00 
 244    2:30   0.00   53.9    44    5.2   173     7.2   850.7    0.00 
 244    2:40   0.00   55.0    42    4.8   172     6.3   850.7    0.00 
 244    2:50   0.00   53.2    47    3.6   181     5.5   850.7    0.00 
 244    3:00   0.00   50.9    52    4.8   154     5.9   850.8    0.00 
 244    3:10   0.00   51.3    51    4.8   151     5.7   850.8    0.00 
 244    3:20   0.00   52.4    48    3.9   151     5.0   850.9    0.00 
 244    3:30   0.00   53.9    45    2.6   136     5.0   850.9    0.00 
 244    3:40   0.00   55.5    41    4.0   122     5.9   850.9    0.00 

Return to Smith Valley graphs page.


Western Regional Climate Center,wrcc@dri.edu